sensor_id;sensor_type;location;lat;lon;timestamp;P1;durP1;ratioP1;P2;durP2;ratioP2
6251;SDS011;3159;52.414;9.784;2023-06-05T00:01:54;2.37;;;1.70;;
6251;SDS011;3159;52.414;9.784;2023-06-05T00:04:21;2.77;;;1.70;;
6251;SDS011;3159;52.414;9.784;2023-06-05T00:06:49;1.60;;;1.50;;
6251;SDS011;3159;52.414;9.784;2023-06-05T00:09:16;2.00;;;1.80;;
6251;SDS011;3159;52.414;9.784;2023-06-05T00:11:43;3.63;;;2.07;;
6251;SDS011;3159;52.414;9.784;2023-06-05T00:14:10;3.97;;;1.77;;
6251;SDS011;3159;52.414;9.784;2023-06-05T00:16:37;2.70;;;1.87;;
6251;SDS011;3159;52.414;9.784;2023-06-05T00:19:05;2.90;;;2.10;;
6251;SDS011;3159;52.414;9.784;2023-06-05T00:21:33;2.30;;;1.40;;
6251;SDS011;3159;52.414;9.784;2023-06-05T00:24:00;2.77;;;1.93;;
6251;SDS011;3159;52.414;9.784;2023-06-05T00:26:27;3.47;;;1.90;;
6251;SDS011;3159;52.414;9.784;2023-06-05T00:28:53;3.23;;;1.90;;
6251;SDS011;3159;52.414;9.784;2023-06-05T00:31:20;2.20;;;1.80;;
6251;SDS011;3159;52.414;9.784;2023-06-05T00:33:48;2.00;;;1.70;;
6251;SDS011;3159;52.414;9.784;2023-06-05T00:36:17;2.20;;;1.90;;
6251;SDS011;3159;52.414;9.784;2023-06-05T00:38:47;4.97;;;2.03;;
6251;SDS011;3159;52.414;9.784;2023-06-05T00:41:14;2.27;;;1.63;;
6251;SDS011;3159;52.414;9.784;2023-06-05T00:43:41;4.43;;;2.23;;
6251;SDS011;3159;52.414;9.784;2023-06-05T00:46:08;4.43;;;2.03;;
6251;SDS011;3159;52.414;9.784;2023-06-05T00:48:36;1.87;;;1.77;;
6251;SDS011;3159;52.414;9.784;2023-06-05T00:51:04;3.13;;;2.20;;
6251;SDS011;3159;52.414;9.784;2023-06-05T00:53:34;3.13;;;2.20;;
6251;SDS011;3159;52.414;9.784;2023-06-05T00:56:02;2.40;;;1.87;;
6251;SDS011;3159;52.414;9.784;2023-06-05T00:58:29;2.37;;;2.00;;
6251;SDS011;3159;52.414;9.784;2023-06-05T01:00:57;2.57;;;2.10;;
6251;SDS011;3159;52.414;9.784;2023-06-05T01:03:25;2.60;;;2.00;;
6251;SDS011;3159;52.414;9.784;2023-06-05T01:05:54;2.67;;;1.87;;
6251;SDS011;3159;52.414;9.784;2023-06-05T01:08:28;3.57;;;2.20;;
6251;SDS011;3159;52.414;9.784;2023-06-05T01:11:05;3.80;;;2.33;;
6251;SDS011;3159;52.414;9.784;2023-06-05T01:13:40;3.73;;;2.13;;
6251;SDS011;3159;52.414;9.784;2023-06-05T01:16:13;2.20;;;1.97;;
6251;SDS011;3159;52.414;9.784;2023-06-05T01:18:41;3.73;;;1.97;;
6251;SDS011;3159;52.414;9.784;2023-06-05T01:21:11;4.33;;;2.03;;
6251;SDS011;3159;52.414;9.784;2023-06-05T01:23:41;2.60;;;2.10;;
6251;SDS011;3159;52.414;9.784;2023-06-05T01:26:10;5.03;;;2.43;;
6251;SDS011;3159;52.414;9.784;2023-06-05T01:28:42;3.73;;;2.23;;
6251;SDS011;3159;52.414;9.784;2023-06-05T01:31:13;2.20;;;2.00;;
6251;SDS011;3159;52.414;9.784;2023-06-05T01:33:46;2.20;;;2.00;;
6251;SDS011;3159;52.414;9.784;2023-06-05T01:36:17;2.93;;;2.30;;
6251;SDS011;3159;52.414;9.784;2023-06-05T01:38:46;2.60;;;1.93;;
6251;SDS011;3159;52.414;9.784;2023-06-05T01:41:15;2.50;;;2.20;;
6251;SDS011;3159;52.414;9.784;2023-06-05T01:43:44;2.40;;;2.20;;
6251;SDS011;3159;52.414;9.784;2023-06-05T01:46:13;3.00;;;2.23;;
6251;SDS011;3159;52.414;9.784;2023-06-05T01:48:43;3.73;;;2.70;;
6251;SDS011;3159;52.414;9.784;2023-06-05T01:51:10;3.40;;;2.40;;
6251;SDS011;3159;52.414;9.784;2023-06-05T01:53:37;3.00;;;2.27;;
6251;SDS011;3159;52.414;9.784;2023-06-05T01:56:06;3.77;;;2.50;;
6251;SDS011;3159;52.414;9.784;2023-06-05T01:58:33;4.80;;;2.30;;
6251;SDS011;3159;52.414;9.784;2023-06-05T02:01:02;3.13;;;2.13;;
6251;SDS011;3159;52.414;9.784;2023-06-05T02:03:30;2.80;;;2.23;;
6251;SDS011;3159;52.414;9.784;2023-06-05T02:05:57;3.33;;;2.13;;
6251;SDS011;3159;52.414;9.784;2023-06-05T02:08:24;4.30;;;1.97;;
6251;SDS011;3159;52.414;9.784;2023-06-05T02:10:53;3.33;;;2.33;;
6251;SDS011;3159;52.414;9.784;2023-06-05T02:13:21;3.87;;;2.37;;
6251;SDS011;3159;52.414;9.784;2023-06-05T02:15:50;4.67;;;2.37;;
6251;SDS011;3159;52.414;9.784;2023-06-05T02:18:21;4.87;;;2.83;;
6251;SDS011;3159;52.414;9.784;2023-06-05T02:20:52;3.20;;;2.40;;
6251;SDS011;3159;52.414;9.784;2023-06-05T02:23:21;3.80;;;2.40;;
6251;SDS011;3159;52.414;9.784;2023-06-05T02:25:48;3.57;;;2.90;;
6251;SDS011;3159;52.414;9.784;2023-06-05T02:28:15;3.87;;;2.63;;
6251;SDS011;3159;52.414;9.784;2023-06-05T02:30:43;3.17;;;2.67;;
6251;SDS011;3159;52.414;9.784;2023-06-05T02:33:10;3.33;;;3.03;;
6251;SDS011;3159;52.414;9.784;2023-06-05T02:35:37;4.10;;;3.10;;
6251;SDS011;3159;52.414;9.784;2023-06-05T02:38:05;4.67;;;3.17;;
6251;SDS011;3159;52.414;9.784;2023-06-05T02:40:32;8.30;;;3.33;;
6251;SDS011;3159;52.414;9.784;2023-06-05T02:42:59;3.63;;;3.20;;
6251;SDS011;3159;52.414;9.784;2023-06-05T02:45:26;3.50;;;2.83;;
6251;SDS011;3159;52.414;9.784;2023-06-05T02:47:54;3.63;;;3.00;;
6251;SDS011;3159;52.414;9.784;2023-06-05T02:50:21;4.40;;;2.97;;
6251;SDS011;3159;52.414;9.784;2023-06-05T02:52:48;4.23;;;2.73;;
6251;SDS011;3159;52.414;9.784;2023-06-05T02:55:15;5.90;;;2.70;;
6251;SDS011;3159;52.414;9.784;2023-06-05T02:57:42;4.00;;;2.90;;
6251;SDS011;3159;52.414;9.784;2023-06-05T03:00:10;3.97;;;2.83;;
6251;SDS011;3159;52.414;9.784;2023-06-05T03:02:41;4.40;;;2.83;;
6251;SDS011;3159;52.414;9.784;2023-06-05T03:05:14;4.47;;;2.77;;
6251;SDS011;3159;52.414;9.784;2023-06-05T03:07:41;3.33;;;3.03;;
6251;SDS011;3159;52.414;9.784;2023-06-05T03:10:08;3.60;;;2.90;;
6251;SDS011;3159;52.414;9.784;2023-06-05T03:12:35;3.90;;;3.27;;
6251;SDS011;3159;52.414;9.784;2023-06-05T03:15:02;3.90;;;2.87;;
6251;SDS011;3159;52.414;9.784;2023-06-05T03:17:30;5.27;;;3.30;;
6251;SDS011;3159;52.414;9.784;2023-06-05T03:19:57;3.23;;;2.93;;
6251;SDS011;3159;52.414;9.784;2023-06-05T03:22:26;5.47;;;3.03;;
6251;SDS011;3159;52.414;9.784;2023-06-05T03:24:53;4.70;;;3.43;;
6251;SDS011;3159;52.414;9.784;2023-06-05T03:27:20;6.33;;;2.90;;
6251;SDS011;3159;52.414;9.784;2023-06-05T03:29:47;5.07;;;3.47;;
6251;SDS011;3159;52.414;9.784;2023-06-05T03:32:13;5.93;;;3.30;;
6251;SDS011;3159;52.414;9.784;2023-06-05T03:34:40;7.57;;;3.60;;
6251;SDS011;3159;52.414;9.784;2023-06-05T03:37:07;6.23;;;3.30;;
6251;SDS011;3159;52.414;9.784;2023-06-05T03:39:36;4.53;;;3.20;;
6251;SDS011;3159;52.414;9.784;2023-06-05T03:42:03;4.57;;;3.50;;
6251;SDS011;3159;52.414;9.784;2023-06-05T03:44:32;3.40;;;3.10;;
6251;SDS011;3159;52.414;9.784;2023-06-05T03:46:58;5.67;;;3.50;;
6251;SDS011;3159;52.414;9.784;2023-06-05T03:49:25;4.73;;;3.30;;
6251;SDS011;3159;52.414;9.784;2023-06-05T03:51:53;4.70;;;3.40;;
6251;SDS011;3159;52.414;9.784;2023-06-05T03:54:26;4.97;;;3.57;;
6251;SDS011;3159;52.414;9.784;2023-06-05T03:56:55;5.53;;;3.50;;
6251;SDS011;3159;52.414;9.784;2023-06-05T03:59:24;3.67;;;3.37;;
6251;SDS011;3159;52.414;9.784;2023-06-05T04:01:53;4.33;;;3.20;;
6251;SDS011;3159;52.414;9.784;2023-06-05T04:04:20;5.43;;;3.97;;
6251;SDS011;3159;52.414;9.784;2023-06-05T04:06:47;4.97;;;3.50;;
6251;SDS011;3159;52.414;9.784;2023-06-05T04:09:14;6.17;;;3.67;;
6251;SDS011;3159;52.414;9.784;2023-06-05T04:11:43;7.63;;;3.90;;
6251;SDS011;3159;52.414;9.784;2023-06-05T04:14:11;6.03;;;3.63;;
6251;SDS011;3159;52.414;9.784;2023-06-05T04:16:39;4.67;;;3.70;;
6251;SDS011;3159;52.414;9.784;2023-06-05T04:19:08;4.33;;;3.60;;
6251;SDS011;3159;52.414;9.784;2023-06-05T04:21:36;4.93;;;3.97;;
6251;SDS011;3159;52.414;9.784;2023-06-05T04:24:04;4.37;;;3.33;;
6251;SDS011;3159;52.414;9.784;2023-06-05T04:26:32;3.87;;;3.47;;
6251;SDS011;3159;52.414;9.784;2023-06-05T04:28:59;4.90;;;3.73;;
6251;SDS011;3159;52.414;9.784;2023-06-05T04:31:29;3.97;;;3.50;;
6251;SDS011;3159;52.414;9.784;2023-06-05T04:33:56;6.70;;;4.10;;
6251;SDS011;3159;52.414;9.784;2023-06-05T04:36:23;3.93;;;3.47;;
6251;SDS011;3159;52.414;9.784;2023-06-05T04:38:50;6.97;;;4.10;;
6251;SDS011;3159;52.414;9.784;2023-06-05T04:41:17;4.70;;;3.57;;
6251;SDS011;3159;52.414;9.784;2023-06-05T04:43:46;6.37;;;4.17;;
6251;SDS011;3159;52.414;9.784;2023-06-05T04:46:13;6.83;;;4.13;;
6251;SDS011;3159;52.414;9.784;2023-06-05T04:48:42;7.07;;;3.97;;
6251;SDS011;3159;52.414;9.784;2023-06-05T04:51:10;5.47;;;3.93;;
6251;SDS011;3159;52.414;9.784;2023-06-05T04:53:38;4.73;;;3.60;;
6251;SDS011;3159;52.414;9.784;2023-06-05T04:56:06;5.33;;;4.20;;
6251;SDS011;3159;52.414;9.784;2023-06-05T04:58:34;7.27;;;3.83;;
6251;SDS011;3159;52.414;9.784;2023-06-05T05:01:01;5.47;;;3.80;;
6251;SDS011;3159;52.414;9.784;2023-06-05T05:03:31;7.50;;;4.03;;
6251;SDS011;3159;52.414;9.784;2023-06-05T05:05:59;7.70;;;3.97;;
6251;SDS011;3159;52.414;9.784;2023-06-05T05:08:26;4.60;;;3.57;;
6251;SDS011;3159;52.414;9.784;2023-06-05T05:10:53;7.07;;;3.90;;
6251;SDS011;3159;52.414;9.784;2023-06-05T05:13:20;5.63;;;3.70;;
6251;SDS011;3159;52.414;9.784;2023-06-05T05:15:47;7.90;;;3.93;;
6251;SDS011;3159;52.414;9.784;2023-06-05T05:18:17;9.53;;;4.10;;
6251;SDS011;3159;52.414;9.784;2023-06-05T05:20:44;8.83;;;4.30;;
6251;SDS011;3159;52.414;9.784;2023-06-05T05:23:13;10.83;;;4.03;;
6251;SDS011;3159;52.414;9.784;2023-06-05T05:25:40;5.87;;;4.13;;
6251;SDS011;3159;52.414;9.784;2023-06-05T05:28:07;7.07;;;4.13;;
6251;SDS011;3159;52.414;9.784;2023-06-05T05:30:35;7.03;;;4.07;;
6251;SDS011;3159;52.414;9.784;2023-06-05T05:33:01;8.43;;;3.93;;
6251;SDS011;3159;52.414;9.784;2023-06-05T05:35:28;8.07;;;4.30;;
6251;SDS011;3159;52.414;9.784;2023-06-05T05:37:55;5.80;;;4.23;;
6251;SDS011;3159;52.414;9.784;2023-06-05T05:40:24;8.77;;;4.23;;
6251;SDS011;3159;52.414;9.784;2023-06-05T05:42:51;9.67;;;4.40;;
6251;SDS011;3159;52.414;9.784;2023-06-05T05:45:17;11.33;;;4.53;;
6251;SDS011;3159;52.414;9.784;2023-06-05T05:47:44;7.83;;;4.17;;
6251;SDS011;3159;52.414;9.784;2023-06-05T05:50:11;8.43;;;3.90;;
6251;SDS011;3159;52.414;9.784;2023-06-05T05:52:38;5.80;;;3.97;;
6251;SDS011;3159;52.414;9.784;2023-06-05T05:55:05;6.40;;;4.63;;
6251;SDS011;3159;52.414;9.784;2023-06-05T05:57:34;5.77;;;4.00;;
6251;SDS011;3159;52.414;9.784;2023-06-05T06:00:01;7.17;;;4.57;;
6251;SDS011;3159;52.414;9.784;2023-06-05T06:02:30;5.43;;;4.17;;
6251;SDS011;3159;52.414;9.784;2023-06-05T06:04:57;8.33;;;4.17;;
6251;SDS011;3159;52.414;9.784;2023-06-05T06:07:24;9.00;;;4.30;;
6251;SDS011;3159;52.414;9.784;2023-06-05T06:09:51;5.27;;;3.90;;
6251;SDS011;3159;52.414;9.784;2023-06-05T06:12:18;6.17;;;3.77;;
6251;SDS011;3159;52.414;9.784;2023-06-05T06:14:47;8.30;;;4.20;;
6251;SDS011;3159;52.414;9.784;2023-06-05T06:17:14;6.40;;;3.93;;
6251;SDS011;3159;52.414;9.784;2023-06-05T06:19:41;6.80;;;3.80;;
6251;SDS011;3159;52.414;9.784;2023-06-05T06:22:08;4.50;;;3.97;;
6251;SDS011;3159;52.414;9.784;2023-06-05T06:24:37;6.47;;;4.40;;
6251;SDS011;3159;52.414;9.784;2023-06-05T06:27:04;8.47;;;3.70;;
6251;SDS011;3159;52.414;9.784;2023-06-05T06:29:31;9.70;;;4.13;;
6251;SDS011;3159;52.414;9.784;2023-06-05T06:32:00;7.10;;;4.20;;
6251;SDS011;3159;52.414;9.784;2023-06-05T06:34:26;7.47;;;3.93;;
6251;SDS011;3159;52.414;9.784;2023-06-05T06:36:54;8.47;;;4.40;;
6251;SDS011;3159;52.414;9.784;2023-06-05T06:39:21;7.90;;;3.93;;
6251;SDS011;3159;52.414;9.784;2023-06-05T06:41:49;6.00;;;3.90;;
6251;SDS011;3159;52.414;9.784;2023-06-05T06:44:18;5.67;;;3.60;;
6251;SDS011;3159;52.414;9.784;2023-06-05T06:46:45;7.23;;;3.87;;
6251;SDS011;3159;52.414;9.784;2023-06-05T06:49:13;7.10;;;4.00;;
6251;SDS011;3159;52.414;9.784;2023-06-05T06:51:40;6.37;;;3.43;;
6251;SDS011;3159;52.414;9.784;2023-06-05T06:54:07;8.00;;;3.70;;
6251;SDS011;3159;52.414;9.784;2023-06-05T06:56:33;5.87;;;3.47;;
6251;SDS011;3159;52.414;9.784;2023-06-05T06:59:05;5.83;;;3.27;;
6251;SDS011;3159;52.414;9.784;2023-06-05T07:01:36;7.33;;;3.60;;
6251;SDS011;3159;52.414;9.784;2023-06-05T07:04:07;8.23;;;3.70;;
6251;SDS011;3159;52.414;9.784;2023-06-05T07:06:36;7.23;;;3.60;;
6251;SDS011;3159;52.414;9.784;2023-06-05T07:09:03;8.33;;;3.47;;
6251;SDS011;3159;52.414;9.784;2023-06-05T07:11:30;8.80;;;3.67;;
6251;SDS011;3159;52.414;9.784;2023-06-05T07:13:57;9.50;;;3.57;;
6251;SDS011;3159;52.414;9.784;2023-06-05T07:16:24;8.87;;;3.23;;
6251;SDS011;3159;52.414;9.784;2023-06-05T07:18:51;5.60;;;3.80;;
6251;SDS011;3159;52.414;9.784;2023-06-05T07:21:18;5.00;;;3.33;;
6251;SDS011;3159;52.414;9.784;2023-06-05T07:23:48;7.40;;;3.70;;
6251;SDS011;3159;52.414;9.784;2023-06-05T07:26:16;5.77;;;3.30;;
6251;SDS011;3159;52.414;9.784;2023-06-05T07:28:43;3.93;;;2.97;;
6251;SDS011;3159;52.414;9.784;2023-06-05T07:31:11;4.37;;;3.23;;
6251;SDS011;3159;52.414;9.784;2023-06-05T07:33:39;7.43;;;3.43;;
6251;SDS011;3159;52.414;9.784;2023-06-05T07:36:06;4.53;;;2.90;;
6251;SDS011;3159;52.414;9.784;2023-06-05T07:38:35;7.17;;;3.10;;
6251;SDS011;3159;52.414;9.784;2023-06-05T07:41:05;6.27;;;2.77;;
6251;SDS011;3159;52.414;9.784;2023-06-05T07:43:31;4.77;;;2.80;;
6251;SDS011;3159;52.414;9.784;2023-06-05T07:45:58;5.70;;;3.17;;
6251;SDS011;3159;52.414;9.784;2023-06-05T07:48:25;8.40;;;3.20;;
6251;SDS011;3159;52.414;9.784;2023-06-05T07:50:52;9.87;;;3.47;;
6251;SDS011;3159;52.414;9.784;2023-06-05T07:53:19;6.77;;;3.40;;
6251;SDS011;3159;52.414;9.784;2023-06-05T07:55:47;7.47;;;3.00;;
6251;SDS011;3159;52.414;9.784;2023-06-05T07:58:18;5.83;;;3.00;;
6251;SDS011;3159;52.414;9.784;2023-06-05T08:00:45;4.80;;;3.37;;
6251;SDS011;3159;52.414;9.784;2023-06-05T08:03:13;3.20;;;2.33;;
6251;SDS011;3159;52.414;9.784;2023-06-05T08:05:45;4.70;;;2.80;;
6251;SDS011;3159;52.414;9.784;2023-06-05T08:08:12;5.17;;;2.40;;
6251;SDS011;3159;52.414;9.784;2023-06-05T08:10:39;3.90;;;2.50;;
6251;SDS011;3159;52.414;9.784;2023-06-05T08:13:06;7.13;;;2.70;;
6251;SDS011;3159;52.414;9.784;2023-06-05T08:15:34;5.47;;;2.50;;
6251;SDS011;3159;52.414;9.784;2023-06-05T08:18:02;4.40;;;2.60;;
6251;SDS011;3159;52.414;9.784;2023-06-05T08:20:29;4.47;;;2.20;;
6251;SDS011;3159;52.414;9.784;2023-06-05T08:22:56;4.43;;;2.00;;
6251;SDS011;3159;52.414;9.784;2023-06-05T08:25:23;4.30;;;2.13;;
6251;SDS011;3159;52.414;9.784;2023-06-05T08:27:50;3.80;;;2.50;;
6251;SDS011;3159;52.414;9.784;2023-06-05T08:30:17;4.33;;;2.47;;
6251;SDS011;3159;52.414;9.784;2023-06-05T08:32:45;5.10;;;2.23;;
6251;SDS011;3159;52.414;9.784;2023-06-05T08:35:12;4.50;;;2.53;;
6251;SDS011;3159;52.414;9.784;2023-06-05T08:37:39;4.80;;;2.63;;
6251;SDS011;3159;52.414;9.784;2023-06-05T08:40:06;8.60;;;2.90;;
6251;SDS011;3159;52.414;9.784;2023-06-05T08:42:35;5.63;;;2.03;;
6251;SDS011;3159;52.414;9.784;2023-06-05T08:45:03;8.83;;;2.47;;
6251;SDS011;3159;52.414;9.784;2023-06-05T08:47:32;3.53;;;2.17;;
6251;SDS011;3159;52.414;9.784;2023-06-05T08:50:05;3.40;;;2.10;;
6251;SDS011;3159;52.414;9.784;2023-06-05T08:52:33;4.77;;;2.30;;
6251;SDS011;3159;52.414;9.784;2023-06-05T08:55:03;4.20;;;2.30;;
6251;SDS011;3159;52.414;9.784;2023-06-05T08:57:31;4.07;;;2.10;;
6251;SDS011;3159;52.414;9.784;2023-06-05T08:59:59;3.30;;;2.00;;
6251;SDS011;3159;52.414;9.784;2023-06-05T09:02:32;4.40;;;2.20;;
6251;SDS011;3159;52.414;9.784;2023-06-05T09:04:59;3.83;;;2.30;;
6251;SDS011;3159;52.414;9.784;2023-06-05T09:07:28;4.00;;;1.87;;
6251;SDS011;3159;52.414;9.784;2023-06-05T09:09:56;4.87;;;1.87;;
6251;SDS011;3159;52.414;9.784;2023-06-05T09:12:23;6.80;;;1.90;;
6251;SDS011;3159;52.414;9.784;2023-06-05T09:14:50;2.83;;;1.77;;
6251;SDS011;3159;52.414;9.784;2023-06-05T09:17:17;5.30;;;2.00;;
6251;SDS011;3159;52.414;9.784;2023-06-05T09:19:47;6.33;;;2.20;;
6251;SDS011;3159;52.414;9.784;2023-06-05T09:22:15;6.13;;;2.00;;
6251;SDS011;3159;52.414;9.784;2023-06-05T09:24:58;4.37;;;2.20;;
6251;SDS011;3159;52.414;9.784;2023-06-05T09:27:26;4.70;;;2.10;;
6251;SDS011;3159;52.414;9.784;2023-06-05T09:30:00;2.63;;;1.90;;
6251;SDS011;3159;52.414;9.784;2023-06-05T09:32:29;10.60;;;2.40;;
6251;SDS011;3159;52.414;9.784;2023-06-05T09:34:56;2.93;;;1.83;;
6251;SDS011;3159;52.414;9.784;2023-06-05T09:37:31;9.87;;;2.00;;
6251;SDS011;3159;52.414;9.784;2023-06-05T09:40:01;4.07;;;1.70;;
6251;SDS011;3159;52.414;9.784;2023-06-05T09:42:32;4.97;;;1.90;;
6251;SDS011;3159;52.414;9.784;2023-06-05T09:45:00;3.17;;;1.70;;
6251;SDS011;3159;52.414;9.784;2023-06-05T09:47:27;3.73;;;1.73;;
6251;SDS011;3159;52.414;9.784;2023-06-05T09:49:54;3.53;;;1.87;;
6251;SDS011;3159;52.414;9.784;2023-06-05T09:52:21;2.73;;;1.80;;
6251;SDS011;3159;52.414;9.784;2023-06-05T09:54:48;5.73;;;1.90;;
6251;SDS011;3159;52.414;9.784;2023-06-05T09:57:17;3.60;;;1.97;;
6251;SDS011;3159;52.414;9.784;2023-06-05T09:59:49;3.13;;;1.70;;
6251;SDS011;3159;52.414;9.784;2023-06-05T10:02:19;2.43;;;1.70;;
6251;SDS011;3159;52.414;9.784;2023-06-05T10:04:48;2.13;;;1.70;;
6251;SDS011;3159;52.414;9.784;2023-06-05T10:07:17;4.30;;;1.50;;
6251;SDS011;3159;52.414;9.784;2023-06-05T10:09:47;4.00;;;1.27;;
6251;SDS011;3159;52.414;9.784;2023-06-05T10:12:16;3.70;;;1.17;;
6251;SDS011;3159;52.414;9.784;2023-06-05T10:14:44;3.37;;;1.37;;
6251;SDS011;3159;52.414;9.784;2023-06-05T10:17:11;3.20;;;1.40;;
6251;SDS011;3159;52.414;9.784;2023-06-05T10:19:41;3.90;;;1.23;;
6251;SDS011;3159;52.414;9.784;2023-06-05T10:22:09;1.90;;;1.40;;
6251;SDS011;3159;52.414;9.784;2023-06-05T10:24:37;2.00;;;1.50;;
6251;SDS011;3159;52.414;9.784;2023-06-05T10:27:19;1.53;;;1.20;;
6251;SDS011;3159;52.414;9.784;2023-06-05T10:30:26;1.50;;;1.23;;
6251;SDS011;3159;52.414;9.784;2023-06-05T10:33:11;2.20;;;1.40;;
6251;SDS011;3159;52.414;9.784;2023-06-05T10:35:52;2.60;;;1.50;;
6251;SDS011;3159;52.414;9.784;2023-06-05T10:38:26;2.87;;;2.03;;
6251;SDS011;3159;52.414;9.784;2023-06-05T10:40:54;2.03;;;1.30;;
6251;SDS011;3159;52.414;9.784;2023-06-05T10:43:30;2.07;;;1.53;;
6251;SDS011;3159;52.414;9.784;2023-06-05T10:45:58;2.17;;;1.30;;
6251;SDS011;3159;52.414;9.784;2023-06-05T10:51:36;1.67;;;1.40;;
6251;SDS011;3159;52.414;9.784;2023-06-05T10:54:05;3.33;;;1.27;;
6251;SDS011;3159;52.414;9.784;2023-06-05T10:59:29;3.03;;;1.40;;
6251;SDS011;3159;52.414;9.784;2023-06-05T11:05:06;1.60;;;1.20;;
6251;SDS011;3159;52.414;9.784;2023-06-05T11:07:38;2.43;;;1.47;;
6251;SDS011;3159;52.414;9.784;2023-06-05T11:10:11;3.13;;;1.43;;
6251;SDS011;3159;52.414;9.784;2023-06-05T11:12:57;3.40;;;1.47;;
6251;SDS011;3159;52.414;9.784;2023-06-05T11:18:26;1.40;;;1.30;;
6251;SDS011;3159;52.414;9.784;2023-06-05T11:21:01;2.77;;;1.50;;
6251;SDS011;3159;52.414;9.784;2023-06-05T11:23:28;1.90;;;1.40;;
6251;SDS011;3159;52.414;9.784;2023-06-05T11:25:56;3.53;;;1.37;;
6251;SDS011;3159;52.414;9.784;2023-06-05T11:31:10;5.13;;;1.30;;
6251;SDS011;3159;52.414;9.784;2023-06-05T11:33:37;4.67;;;1.47;;
6251;SDS011;3159;52.414;9.784;2023-06-05T11:36:05;1.87;;;1.37;;
6251;SDS011;3159;52.414;9.784;2023-06-05T11:38:34;2.37;;;1.40;;
6251;SDS011;3159;52.414;9.784;2023-06-05T11:41:05;2.80;;;1.37;;
6251;SDS011;3159;52.414;9.784;2023-06-05T11:43:33;2.87;;;1.50;;
6251;SDS011;3159;52.414;9.784;2023-06-05T11:46:06;1.70;;;1.40;;
6251;SDS011;3159;52.414;9.784;2023-06-05T11:48:35;2.20;;;1.30;;
6251;SDS011;3159;52.414;9.784;2023-06-05T11:51:09;2.07;;;1.50;;
6251;SDS011;3159;52.414;9.784;2023-06-05T11:53:42;1.73;;;1.37;;
6251;SDS011;3159;52.414;9.784;2023-06-05T11:56:13;3.20;;;1.40;;
6251;SDS011;3159;52.414;9.784;2023-06-05T11:58:42;3.60;;;1.33;;
6251;SDS011;3159;52.414;9.784;2023-06-05T12:01:11;4.13;;;1.80;;
6251;SDS011;3159;52.414;9.784;2023-06-05T12:03:44;2.70;;;1.40;;
6251;SDS011;3159;52.414;9.784;2023-06-05T12:06:12;3.10;;;1.57;;
6251;SDS011;3159;52.414;9.784;2023-06-05T12:08:39;3.47;;;1.67;;
6251;SDS011;3159;52.414;9.784;2023-06-05T12:11:20;2.27;;;1.20;;
6251;SDS011;3159;52.414;9.784;2023-06-05T12:13:48;1.67;;;1.40;;
6251;SDS011;3159;52.414;9.784;2023-06-05T12:16:16;2.57;;;1.70;;
6251;SDS011;3159;52.414;9.784;2023-06-05T12:18:45;2.47;;;1.57;;
6251;SDS011;3159;52.414;9.784;2023-06-05T12:21:21;2.63;;;1.53;;
6251;SDS011;3159;52.414;9.784;2023-06-05T12:23:49;2.63;;;1.33;;
6251;SDS011;3159;52.414;9.784;2023-06-05T12:26:17;2.73;;;1.27;;
6251;SDS011;3159;52.414;9.784;2023-06-05T12:28:44;3.80;;;1.80;;
6251;SDS011;3159;52.414;9.784;2023-06-05T12:33:59;2.20;;;1.27;;
6251;SDS011;3159;52.414;9.784;2023-06-05T12:36:26;3.43;;;1.63;;
6251;SDS011;3159;52.414;9.784;2023-06-05T12:38:53;8.67;;;2.00;;
6251;SDS011;3159;52.414;9.784;2023-06-05T12:41:20;2.60;;;1.67;;
6251;SDS011;3159;52.414;9.784;2023-06-05T12:43:58;3.43;;;1.63;;
6251;SDS011;3159;52.414;9.784;2023-06-05T12:46:24;2.90;;;1.50;;
6251;SDS011;3159;52.414;9.784;2023-06-05T12:48:51;4.80;;;1.63;;
6251;SDS011;3159;52.414;9.784;2023-06-05T12:51:19;2.47;;;1.40;;
6251;SDS011;3159;52.414;9.784;2023-06-05T12:53:47;3.97;;;1.50;;
6251;SDS011;3159;52.414;9.784;2023-06-05T12:56:13;3.17;;;1.63;;
6251;SDS011;3159;52.414;9.784;2023-06-05T12:58:40;1.87;;;1.53;;
6251;SDS011;3159;52.414;9.784;2023-06-05T13:01:07;1.93;;;1.47;;
6251;SDS011;3159;52.414;9.784;2023-06-05T13:03:34;3.77;;;1.33;;
6251;SDS011;3159;52.414;9.784;2023-06-05T13:06:01;2.90;;;1.50;;
6251;SDS011;3159;52.414;9.784;2023-06-05T13:08:30;3.17;;;1.53;;
6251;SDS011;3159;52.414;9.784;2023-06-05T13:10:57;2.57;;;1.53;;
6251;SDS011;3159;52.414;9.784;2023-06-05T13:13:23;7.47;;;1.70;;
6251;SDS011;3159;52.414;9.784;2023-06-05T13:15:50;2.97;;;1.60;;
6251;SDS011;3159;52.414;9.784;2023-06-05T13:18:17;3.83;;;1.50;;
6251;SDS011;3159;52.414;9.784;2023-06-05T13:20:44;8.37;;;1.80;;
6251;SDS011;3159;52.414;9.784;2023-06-05T13:23:11;7.33;;;1.33;;
6251;SDS011;3159;52.414;9.784;2023-06-05T13:25:39;1.67;;;1.40;;
6251;SDS011;3159;52.414;9.784;2023-06-05T13:28:06;3.47;;;1.70;;
6251;SDS011;3159;52.414;9.784;2023-06-05T13:30:32;3.93;;;1.50;;
6251;SDS011;3159;52.414;9.784;2023-06-05T13:32:59;2.67;;;1.57;;
6251;SDS011;3159;52.414;9.784;2023-06-05T13:35:26;3.27;;;1.23;;
6251;SDS011;3159;52.414;9.784;2023-06-05T13:37:53;4.13;;;1.33;;
6251;SDS011;3159;52.414;9.784;2023-06-05T13:40:20;2.97;;;1.60;;
6251;SDS011;3159;52.414;9.784;2023-06-05T13:42:48;1.63;;;1.53;;
6251;SDS011;3159;52.414;9.784;2023-06-05T13:45:16;3.10;;;1.60;;
6251;SDS011;3159;52.414;9.784;2023-06-05T13:47:43;2.63;;;1.37;;
6251;SDS011;3159;52.414;9.784;2023-06-05T13:50:10;3.07;;;1.23;;
6251;SDS011;3159;52.414;9.784;2023-06-05T13:52:37;1.60;;;1.50;;
6251;SDS011;3159;52.414;9.784;2023-06-05T13:55:04;1.93;;;1.40;;
6251;SDS011;3159;52.414;9.784;2023-06-05T13:57:32;3.03;;;1.60;;
6251;SDS011;3159;52.414;9.784;2023-06-05T14:00:01;3.90;;;1.27;;
6251;SDS011;3159;52.414;9.784;2023-06-05T14:02:30;3.07;;;1.53;;
6251;SDS011;3159;52.414;9.784;2023-06-05T14:04:57;3.57;;;1.53;;
6251;SDS011;3159;52.414;9.784;2023-06-05T14:07:23;1.70;;;1.20;;
6251;SDS011;3159;52.414;9.784;2023-06-05T14:09:51;2.37;;;1.40;;
6251;SDS011;3159;52.414;9.784;2023-06-05T14:12:17;3.33;;;1.33;;
6251;SDS011;3159;52.414;9.784;2023-06-05T14:14:44;2.37;;;1.50;;
6251;SDS011;3159;52.414;9.784;2023-06-05T14:17:13;2.77;;;1.50;;
6251;SDS011;3159;52.414;9.784;2023-06-05T14:19:40;1.90;;;1.60;;
6251;SDS011;3159;52.414;9.784;2023-06-05T14:22:07;2.13;;;1.40;;
6251;SDS011;3159;52.414;9.784;2023-06-05T14:24:35;1.93;;;1.40;;
6251;SDS011;3159;52.414;9.784;2023-06-05T14:27:02;1.77;;;1.47;;
6251;SDS011;3159;52.414;9.784;2023-06-05T14:29:28;2.33;;;1.40;;
6251;SDS011;3159;52.414;9.784;2023-06-05T14:31:55;3.37;;;1.37;;
6251;SDS011;3159;52.414;9.784;2023-06-05T14:34:23;4.73;;;1.50;;
6251;SDS011;3159;52.414;9.784;2023-06-05T14:36:50;3.77;;;1.90;;
6251;SDS011;3159;52.414;9.784;2023-06-05T14:39:17;4.00;;;1.80;;
6251;SDS011;3159;52.414;9.784;2023-06-05T14:41:45;3.97;;;1.77;;
6251;SDS011;3159;52.414;9.784;2023-06-05T14:44:12;1.50;;;1.40;;
6251;SDS011;3159;52.414;9.784;2023-06-05T14:46:39;3.90;;;1.50;;
6251;SDS011;3159;52.414;9.784;2023-06-05T14:49:06;3.30;;;1.50;;
6251;SDS011;3159;52.414;9.784;2023-06-05T14:51:34;1.77;;;1.50;;
6251;SDS011;3159;52.414;9.784;2023-06-05T14:54:01;1.77;;;1.40;;
6251;SDS011;3159;52.414;9.784;2023-06-05T14:56:28;3.43;;;1.30;;
6251;SDS011;3159;52.414;9.784;2023-06-05T14:58:54;3.43;;;1.47;;
6251;SDS011;3159;52.414;9.784;2023-06-05T15:01:21;2.73;;;1.57;;
6251;SDS011;3159;52.414;9.784;2023-06-05T15:03:48;3.07;;;1.83;;
6251;SDS011;3159;52.414;9.784;2023-06-05T15:06:15;2.37;;;1.27;;
6251;SDS011;3159;52.414;9.784;2023-06-05T15:08:43;3.77;;;1.60;;
6251;SDS011;3159;52.414;9.784;2023-06-05T15:11:10;4.00;;;1.83;;
6251;SDS011;3159;52.414;9.784;2023-06-05T15:13:37;6.00;;;1.47;;
6251;SDS011;3159;52.414;9.784;2023-06-05T15:16:04;3.30;;;1.60;;
6251;SDS011;3159;52.414;9.784;2023-06-05T15:18:31;1.97;;;1.70;;
6251;SDS011;3159;52.414;9.784;2023-06-05T15:20:58;1.87;;;1.63;;
6251;SDS011;3159;52.414;9.784;2023-06-05T15:23:25;2.57;;;1.77;;
6251;SDS011;3159;52.414;9.784;2023-06-05T15:25:53;2.67;;;1.40;;
6251;SDS011;3159;52.414;9.784;2023-06-05T15:28:20;1.87;;;1.60;;
6251;SDS011;3159;52.414;9.784;2023-06-05T15:30:47;1.80;;;1.70;;
6251;SDS011;3159;52.414;9.784;2023-06-05T15:33:14;1.90;;;1.80;;
6251;SDS011;3159;52.414;9.784;2023-06-05T15:35:41;3.40;;;1.73;;
6251;SDS011;3159;52.414;9.784;2023-06-05T15:38:10;5.53;;;1.80;;
6251;SDS011;3159;52.414;9.784;2023-06-05T15:40:38;2.20;;;1.80;;